PWSweather.com
Personal Weather Stations
Station Observations
KMIEASTT1
Tawas Bay, East Tawas, MI 48730

Tawas BayEast Tawas, MI 48730

Lat: 44.28, Lon: -83.48

Elevation: 600

Station Type: Davis VantagePro

http://www.tawasbayweather.com

High Low Average
Temperature 27.7°F-2.4°C 17.8°F-7.9°C 22.4°F-5.3°C
Dew Point 25.2°F-3.8°C 14.1°F-9.9°C 18.9°F-7.3°C
Winds 16.0 mph 25.7 kmh 1.0 mph 1.6 kmh 6.0 mph SW9.7 kmh SW
Wind Gusts 20.0 mph32.2 kmh 2.0 mph3.2 kmh 9.0 mph14.5 kmh
Humidity 95% 75% 86%
Pressure 30.24 in1024.0 mb 29.94 in1013.9 mb -
Precipitation 0.00 in0.0 mm - -
Hour Temp Dew Point Humidity Winds Wind Gusts Pressure Precip Precip Rate Daily Precip Total
12:01 AM 23.1°F-4.9°C 18.2°F-7.7°C 81% 4.0 mph W6.4 kmh W 7.0 mph11.3 kmh 30.19 in1022.4 mb 0.00 in0.0 mm 0.00 in/hr0.0 mm/hr 0.00 in0.0 mm
12:16 AM 23.1°F-4.9°C 19.0°F-7.2°C 84% 4.0 mph WNW6.4 kmh WNW 6.0 mph9.7 kmh 30.19 in1022.4 mb 0.00 in0.0 mm 0.00 in/hr0.0 mm/hr 0.00 in0.0 mm
12:31 AM 23.0°F-5.0°C 18.6°F-7.4°C 83% 2.0 mph W3.2 kmh W 5.0 mph8.0 kmh 30.19 in1022.4 mb 0.00 in0.0 mm 0.00 in/hr0.0 mm/hr 0.00 in0.0 mm
12:45 AM 23.1°F-4.9°C 18.7°F-7.4°C 83% 5.0 mph WSW8.0 kmh WSW 6.0 mph9.7 kmh 30.19 in1022.4 mb 0.00 in0.0 mm 0.00 in/hr0.0 mm/hr 0.00 in0.0 mm
01:02 AM 23.2°F-4.9°C 18.5°F-7.5°C 82% 3.0 mph WSW4.8 kmh WSW 6.0 mph9.7 kmh 30.20 in1022.7 mb 0.00 in0.0 mm 0.00 in/hr0.0 mm/hr 0.00 in0.0 mm
01:16 AM 23.3°F-4.8°C 18.3°F-7.6°C 81% 5.0 mph W8.0 kmh W 7.0 mph11.3 kmh 30.20 in1022.7 mb 0.00 in0.0 mm 0.00 in/hr0.0 mm/hr 0.00 in0.0 mm
01:31 AM 23.3°F-4.8°C 18.1°F-7.7°C 80% 4.0 mph WSW6.4 kmh WSW 6.0 mph9.7 kmh 30.20 in1022.7 mb 0.00 in0.0 mm 0.00 in/hr0.0 mm/hr 0.00 in0.0 mm
01:45 AM 23.4°F-4.8°C 17.3°F-8.2°C 77% 5.0 mph WSW8.0 kmh WSW 9.0 mph14.5 kmh 30.20 in1022.7 mb 0.00 in0.0 mm 0.00 in/hr0.0 mm/hr 0.00 in0.0 mm
02:02 AM 23.5°F-4.7°C 16.8°F-8.4°C 75% 4.0 mph NW6.4 kmh NW 7.0 mph11.3 kmh 30.20 in1022.7 mb 0.00 in0.0 mm 0.00 in/hr0.0 mm/hr 0.00 in0.0 mm
02:31 AM 23.3°F-4.8°C 16.6°F-8.6°C 75% 6.0 mph WSW9.7 kmh WSW 6.0 mph9.7 kmh 30.22 in1023.4 mb 0.00 in0.0 mm 0.00 in/hr0.0 mm/hr 0.00 in0.0 mm
02:45 AM 23.1°F-4.9°C 17.0°F-8.3°C 77% 7.0 mph WSW11.3 kmh WSW 8.0 mph12.9 kmh 30.22 in1023.4 mb 0.00 in0.0 mm 0.00 in/hr0.0 mm/hr 0.00 in0.0 mm
03:01 AM 22.4°F-5.3°C 16.9°F-8.4°C 79% 8.0 mph WSW12.9 kmh WSW 10.0 mph16.1 kmh 30.22 in1023.4 mb 0.00 in0.0 mm 0.00 in/hr0.0 mm/hr 0.00 in0.0 mm
03:16 AM 21.6°F-5.8°C 16.4°F-8.7°C 80% 4.0 mph WSW6.4 kmh WSW 6.0 mph9.7 kmh 30.22 in1023.4 mb 0.00 in0.0 mm 0.00 in/hr0.0 mm/hr 0.00 in0.0 mm
03:31 AM 21.1°F-6.1°C 16.2°F-8.8°C 81% 4.0 mph W6.4 kmh W 6.0 mph9.7 kmh 30.23 in1023.7 mb 0.00 in0.0 mm 0.00 in/hr0.0 mm/hr 0.00 in0.0 mm
03:46 AM 20.8°F-6.2°C 16.2°F-8.8°C 82% 4.0 mph WSW6.4 kmh WSW 5.0 mph8.0 kmh 30.23 in1023.7 mb 0.00 in0.0 mm 0.00 in/hr0.0 mm/hr 0.00 in0.0 mm
04:01 AM 20.2°F-6.6°C 15.9°F-8.9°C 83% 3.0 mph W4.8 kmh W 6.0 mph9.7 kmh 30.23 in1023.7 mb 0.00 in0.0 mm 0.00 in/hr0.0 mm/hr 0.00 in0.0 mm
04:15 AM 20.2°F-6.6°C 15.9°F-8.9°C 83% 4.0 mph WSW6.4 kmh WSW 4.0 mph6.4 kmh 30.23 in1023.7 mb 0.00 in0.0 mm 0.00 in/hr0.0 mm/hr 0.00 in0.0 mm
04:30 AM 19.7°F-6.8°C 15.7°F-9.1°C 84% 3.0 mph WSW4.8 kmh WSW 4.0 mph6.4 kmh 30.23 in1023.7 mb 0.00 in0.0 mm 0.00 in/hr0.0 mm/hr 0.00 in0.0 mm
04:46 AM 19.5°F-6.9°C 15.5°F-9.2°C 84% 4.0 mph WSW6.4 kmh WSW 5.0 mph8.0 kmh 30.23 in1023.7 mb 0.00 in0.0 mm 0.00 in/hr0.0 mm/hr 0.00 in0.0 mm
05:01 AM 19.3°F-7.1°C 15.3°F-9.3°C 84% 2.0 mph W3.2 kmh W 4.0 mph6.4 kmh 30.23 in1023.7 mb 0.00 in0.0 mm 0.00 in/hr0.0 mm/hr 0.00 in0.0 mm
05:15 AM 19.2°F-7.1°C 15.4°F-9.2°C 85% 2.0 mph W3.2 kmh W 4.0 mph6.4 kmh 30.23 in1023.7 mb 0.00 in0.0 mm 0.00 in/hr0.0 mm/hr 0.00 in0.0 mm
05:46 AM 18.4°F-7.6°C 14.9°F-9.5°C 86% 3.0 mph WSW4.8 kmh WSW 5.0 mph8.0 kmh 30.24 in1024.0 mb 0.00 in0.0 mm 0.00 in/hr0.0 mm/hr 0.00 in0.0 mm
06:15 AM 18.6°F-7.4°C 15.1°F-9.4°C 86% 5.0 mph WSW8.0 kmh WSW 5.0 mph8.0 kmh 30.24 in1024.0 mb 0.00 in0.0 mm 0.00 in/hr0.0 mm/hr 0.00 in0.0 mm
06:31 AM 18.3°F-7.6°C 14.8°F-9.6°C 86% 3.0 mph WSW4.8 kmh WSW 6.0 mph9.7 kmh 30.24 in1024.0 mb 0.00 in0.0 mm 0.00 in/hr0.0 mm/hr 0.00 in0.0 mm
06:46 AM 18.3°F-7.6°C 14.6°F-9.7°C 85% 4.0 mph WSW6.4 kmh WSW 5.0 mph8.0 kmh 30.23 in1023.7 mb 0.00 in0.0 mm 0.00 in/hr0.0 mm/hr 0.00 in0.0 mm
07:01 AM 17.9°F-7.8°C 14.4°F-9.8°C 86% 4.0 mph WSW6.4 kmh WSW 5.0 mph8.0 kmh 30.22 in1023.4 mb 0.00 in0.0 mm 0.00 in/hr0.0 mm/hr 0.00 in0.0 mm
07:16 AM 17.9°F-7.8°C 14.4°F-9.8°C 86% 4.0 mph WSW6.4 kmh WSW 5.0 mph8.0 kmh 30.21 in1023.0 mb 0.00 in0.0 mm 0.00 in/hr0.0 mm/hr 0.00 in0.0 mm
07:31 AM 17.8°F-7.9°C 14.1°F-9.9°C 85% 3.0 mph WSW4.8 kmh WSW 4.0 mph6.4 kmh 30.20 in1022.7 mb 0.00 in0.0 mm 0.00 in/hr0.0 mm/hr 0.00 in0.0 mm
07:45 AM 17.8°F-7.9°C 14.1°F-9.9°C 85% 3.0 mph WSW4.8 kmh WSW 3.0 mph4.8 kmh 30.21 in1023.0 mb 0.00 in0.0 mm 0.00 in/hr0.0 mm/hr 0.00 in0.0 mm
08:02 AM 18.5°F-7.5°C 14.5°F-9.7°C 84% 2.0 mph WSW3.2 kmh WSW 3.0 mph4.8 kmh 30.21 in1023.0 mb 0.00 in0.0 mm 0.00 in/hr0.0 mm/hr 0.00 in0.0 mm
08:16 AM 18.9°F-7.3°C 14.9°F-9.5°C 84% 2.0 mph WSW3.2 kmh WSW 3.0 mph4.8 kmh 30.21 in1023.0 mb 0.00 in0.0 mm 0.00 in/hr0.0 mm/hr 0.00 in0.0 mm
08:31 AM 18.9°F-7.3°C 14.9°F-9.5°C 84% 1.0 mph WSW1.6 kmh WSW 2.0 mph3.2 kmh 30.21 in1023.0 mb 0.00 in0.0 mm 0.00 in/hr0.0 mm/hr 0.00 in0.0 mm
08:46 AM 19.4°F-7.0°C 15.1°F-9.4°C 83% 1.0 mph WSW1.6 kmh WSW 3.0 mph4.8 kmh 30.21 in1023.0 mb 0.00 in0.0 mm 0.00 in/hr0.0 mm/hr 0.00 in0.0 mm
09:02 AM 19.6°F-6.9°C 15.6°F-9.1°C 84% 3.0 mph WSW4.8 kmh WSW 4.0 mph6.4 kmh 30.23 in1023.7 mb 0.00 in0.0 mm 0.00 in/hr0.0 mm/hr 0.00 in0.0 mm
09:15 AM 21.5°F-5.8°C 17.4°F-8.1°C 84% 4.0 mph SW6.4 kmh SW 7.0 mph11.3 kmh 30.22 in1023.4 mb 0.00 in0.0 mm 0.00 in/hr0.0 mm/hr 0.00 in0.0 mm
09:31 AM 22.2°F-5.4°C 18.1°F-7.7°C 84% 5.0 mph SW8.0 kmh SW 7.0 mph11.3 kmh 30.22 in1023.4 mb 0.00 in0.0 mm 0.00 in/hr0.0 mm/hr 0.00 in0.0 mm
09:46 AM 23.0°F-5.0°C 19.7°F-6.8°C 87% 7.0 mph SSW11.3 kmh SSW 7.0 mph11.3 kmh 30.21 in1023.0 mb 0.00 in0.0 mm 0.00 in/hr0.0 mm/hr 0.00 in0.0 mm
10:03 AM 23.6°F-4.7°C 20.3°F-6.5°C 87% 6.0 mph SSW9.7 kmh SSW 8.0 mph12.9 kmh 30.21 in1023.0 mb 0.00 in0.0 mm 0.00 in/hr0.0 mm/hr 0.00 in0.0 mm
10:16 AM 24.1°F-4.4°C 20.3°F-6.5°C 85% 7.0 mph S11.3 kmh S 11.0 mph17.7 kmh 30.21 in1023.0 mb 0.00 in0.0 mm 0.00 in/hr0.0 mm/hr 0.00 in0.0 mm
10:46 AM 24.4°F-4.2°C 18.8°F-7.3°C 79% 11.0 mph S17.7 kmh S 14.0 mph22.5 kmh 30.21 in1023.0 mb 0.00 in0.0 mm 0.00 in/hr0.0 mm/hr 0.00 in0.0 mm
12:02 PM 23.6°F-4.7°C 21.4°F-5.9°C 91% 13.0 mph S20.9 kmh S 15.0 mph24.1 kmh 30.19 in1022.4 mb 0.00 in0.0 mm 0.00 in/hr0.0 mm/hr 0.00 in0.0 mm
12:16 PM 23.9°F-4.5°C 21.9°F-5.6°C 92% 10.0 mph S16.1 kmh S 14.0 mph22.5 kmh 30.18 in1022.0 mb 0.00 in0.0 mm 0.00 in/hr0.0 mm/hr 0.00 in0.0 mm
12:46 PM 24.3°F-4.3°C 22.6°F-5.2°C 93% 11.0 mph S17.7 kmh S 16.0 mph25.7 kmh 30.15 in1021.0 mb 0.00 in0.0 mm 0.00 in/hr0.0 mm/hr 0.00 in0.0 mm
01:00 PM 24.5°F-4.2°C 22.8°F-5.1°C 93% 12.0 mph S19.3 kmh S 18.0 mph29.0 kmh 30.14 in1020.7 mb 0.00 in0.0 mm 0.00 in/hr0.0 mm/hr 0.00 in0.0 mm
01:16 PM 24.6°F-4.1°C 22.9°F-5.1°C 93% 15.0 mph S24.1 kmh S 18.0 mph29.0 kmh 30.13 in1020.3 mb 0.00 in0.0 mm 0.00 in/hr0.0 mm/hr 0.00 in0.0 mm
01:31 PM 24.8°F-4.0°C 23.1°F-4.9°C 93% 12.0 mph S19.3 kmh S 17.0 mph27.4 kmh 30.11 in1019.6 mb 0.00 in0.0 mm 0.00 in/hr0.0 mm/hr 0.00 in0.0 mm
01:46 PM 24.9°F-3.9°C 23.2°F-4.9°C 93% 12.0 mph S19.3 kmh S 15.0 mph24.1 kmh 30.12 in1020.0 mb 0.00 in0.0 mm 0.00 in/hr0.0 mm/hr 0.00 in0.0 mm
02:02 PM 25.0°F-3.9°C 23.5°F-4.7°C 94% 11.0 mph S17.7 kmh S 14.0 mph22.5 kmh 30.10 in1019.3 mb 0.00 in0.0 mm 0.00 in/hr0.0 mm/hr 0.00 in0.0 mm
02:46 PM 25.2°F-3.8°C 23.7°F-4.6°C 94% 11.0 mph SE17.7 kmh SE 14.0 mph22.5 kmh 30.05 in1017.6 mb 0.00 in0.0 mm 0.00 in/hr0.0 mm/hr 0.00 in0.0 mm
03:00 PM 25.3°F-3.7°C 24.1°F-4.4°C 95% 9.0 mph SE14.5 kmh SE 15.0 mph24.1 kmh 30.06 in1017.9 mb 0.00 in0.0 mm 0.00 in/hr0.0 mm/hr 0.00 in0.0 mm
03:16 PM 25.6°F-3.6°C 24.1°F-4.4°C 94% 13.0 mph SSE20.9 kmh SSE 16.0 mph25.7 kmh 30.06 in1017.9 mb 0.00 in0.0 mm 0.00 in/hr0.0 mm/hr 0.00 in0.0 mm
03:30 PM 25.6°F-3.6°C 24.4°F-4.2°C 95% 12.0 mph SE19.3 kmh SE 18.0 mph29.0 kmh 30.05 in1017.6 mb 0.00 in0.0 mm 0.00 in/hr0.0 mm/hr 0.00 in0.0 mm
03:46 PM 25.8°F-3.4°C 24.6°F-4.1°C 95% 15.0 mph SE24.1 kmh SE 17.0 mph27.4 kmh 30.05 in1017.6 mb 0.00 in0.0 mm 0.00 in/hr0.0 mm/hr 0.00 in0.0 mm
04:31 PM 26.0°F-3.3°C 24.5°F-4.2°C 94% 12.0 mph SE19.3 kmh SE 16.0 mph25.7 kmh 30.03 in1016.9 mb 0.08 in2.0 mm 0.32 in/hr8.1 mm/hr 0.08 in2.0 mm
05:17 PM 26.8°F-2.9°C 25.1°F-3.8°C 93% 14.0 mph SE22.5 kmh SE 20.0 mph32.2 kmh 30.00 in1015.9 mb 0.09 in2.3 mm 0.04 in/hr1.0 mm/hr 0.09 in2.3 mm
05:31 PM 26.8°F-2.9°C 25.1°F-3.8°C 93% 16.0 mph SE25.7 kmh SE 19.0 mph30.6 kmh 30.00 in1015.9 mb 0.01 in0.3 mm 0.00 in/hr0.0 mm/hr 0.09 in2.3 mm
09:02 PM 26.1°F-3.3°C 23.3°F-4.8°C 89% 4.0 mph SE6.4 kmh SE 5.0 mph8.0 kmh 29.96 in1014.6 mb 0.00 in0.0 mm 0.00 in/hr0.0 mm/hr 0.09 in2.3 mm
10:00 PM 27.4°F-2.6°C 25.1°F-3.8°C 91% 2.0 mph ESE3.2 kmh ESE 3.0 mph4.8 kmh 29.95 in1014.2 mb 0.00 in0.0 mm 0.00 in/hr0.0 mm/hr 0.09 in2.3 mm
10:30 PM 27.7°F-2.4°C 25.2°F-3.8°C 90% 3.0 mph E4.8 kmh E 3.0 mph4.8 kmh 29.94 in1013.9 mb 0.00 in0.0 mm 0.00 in/hr0.0 mm/hr 0.09 in2.3 mm
10:46 PM 28.1°F-2.2°C 25.6°F-3.6°C 90% 1.0 mph E1.6 kmh E 3.0 mph4.8 kmh 29.93 in1013.5 mb 0.01 in0.3 mm 0.04 in/hr1.0 mm/hr 0.10 in2.5 mm
11:02 PM 26.8°F-2.9°C 23.7°F-4.6°C 88% 2.0 mph E3.2 kmh E 2.0 mph3.2 kmh 29.93 in1013.5 mb 0.01 in0.3 mm 0.00 in/hr0.0 mm/hr 0.10 in2.5 mm
11:16 PM 25.4°F-3.7°C 22.9°F-5.1°C 90% 2.0 mph E3.2 kmh E 2.0 mph3.2 kmh 29.93 in1013.5 mb 0.01 in0.3 mm 0.00 in/hr0.0 mm/hr 0.10 in2.5 mm
11:31 PM 24.8°F-4.0°C 23.1°F-4.9°C 93% 1.0 mph NE1.6 kmh NE 3.0 mph4.8 kmh 29.94 in1013.9 mb 0.01 in0.3 mm 0.00 in/hr0.0 mm/hr 0.10 in2.5 mm
11:46 PM 24.5°F-4.2°C 22.8°F-5.1°C 93% 1.0 mph NE1.6 kmh NE 3.0 mph4.8 kmh 29.93 in1013.5 mb 0.01 in0.3 mm 0.00 in/hr0.0 mm/hr 0.10 in2.5 mm